sensor_id;sensor_type;location;lat;lon;timestamp;P1;durP1;ratioP1;P2;durP2;ratioP2
35540;SDS011;21650;48.840;9.162;2022-12-17T00:02:18;29.30;;;15.50;;
35540;SDS011;21650;48.840;9.162;2022-12-17T00:05:02;29.87;;;14.53;;
35540;SDS011;21650;48.840;9.162;2022-12-17T00:07:47;24.30;;;15.20;;
35540;SDS011;21650;48.840;9.162;2022-12-17T00:10:39;28.63;;;15.17;;
35540;SDS011;21650;48.840;9.162;2022-12-17T00:13:23;25.50;;;13.93;;
35540;SDS011;21650;48.840;9.162;2022-12-17T00:16:07;26.53;;;14.20;;
35540;SDS011;21650;48.840;9.162;2022-12-17T00:18:51;23.53;;;13.53;;
35540;SDS011;21650;48.840;9.162;2022-12-17T00:21:35;30.17;;;15.43;;
35540;SDS011;21650;48.840;9.162;2022-12-17T00:24:20;29.10;;;16.07;;
35540;SDS011;21650;48.840;9.162;2022-12-17T00:27:04;31.20;;;16.67;;
35540;SDS011;21650;48.840;9.162;2022-12-17T00:29:48;27.53;;;15.57;;
35540;SDS011;21650;48.840;9.162;2022-12-17T00:32:32;27.77;;;15.30;;
35540;SDS011;21650;48.840;9.162;2022-12-17T00:35:16;31.40;;;16.23;;
35540;SDS011;21650;48.840;9.162;2022-12-17T00:38:00;34.03;;;16.73;;
35540;SDS011;21650;48.840;9.162;2022-12-17T00:40:58;31.70;;;15.53;;
35540;SDS011;21650;48.840;9.162;2022-12-17T00:43:42;33.47;;;17.60;;
35540;SDS011;21650;48.840;9.162;2022-12-17T00:46:26;29.90;;;17.33;;
35540;SDS011;21650;48.840;9.162;2022-12-17T00:49:10;30.80;;;17.60;;
35540;SDS011;21650;48.840;9.162;2022-12-17T00:51:54;32.77;;;17.40;;
35540;SDS011;21650;48.840;9.162;2022-12-17T00:54:38;38.03;;;17.03;;
35540;SDS011;21650;48.840;9.162;2022-12-17T00:57:22;28.93;;;15.40;;
35540;SDS011;21650;48.840;9.162;2022-12-17T01:00:06;28.63;;;16.43;;
35540;SDS011;21650;48.840;9.162;2022-12-17T01:02:51;32.77;;;17.10;;
35540;SDS011;21650;48.840;9.162;2022-12-17T01:05:35;37.97;;;18.23;;
35540;SDS011;21650;48.840;9.162;2022-12-17T01:08:19;31.43;;;16.87;;
35540;SDS011;21650;48.840;9.162;2022-12-17T01:11:04;33.63;;;18.57;;
35540;SDS011;21650;48.840;9.162;2022-12-17T01:13:49;28.93;;;15.83;;
35540;SDS011;21650;48.840;9.162;2022-12-17T01:16:34;28.63;;;16.20;;
35540;SDS011;21650;48.840;9.162;2022-12-17T01:19:18;25.93;;;14.97;;
35540;SDS011;21650;48.840;9.162;2022-12-17T01:22:02;26.77;;;15.07;;
35540;SDS011;21650;48.840;9.162;2022-12-17T01:24:46;25.50;;;15.37;;
35540;SDS011;21650;48.840;9.162;2022-12-17T01:27:30;27.53;;;15.57;;
35540;SDS011;21650;48.840;9.162;2022-12-17T01:30:14;24.47;;;15.07;;
35540;SDS011;21650;48.840;9.162;2022-12-17T01:33:02;23.30;;;14.17;;
35540;SDS011;21650;48.840;9.162;2022-12-17T01:35:48;24.33;;;14.03;;
35540;SDS011;21650;48.840;9.162;2022-12-17T01:38:32;29.23;;;15.10;;
35540;SDS011;21650;48.840;9.162;2022-12-17T01:41:16;33.90;;;16.70;;
35540;SDS011;21650;48.840;9.162;2022-12-17T01:44:34;29.57;;;15.57;;
35540;SDS011;21650;48.840;9.162;2022-12-17T01:47:28;31.53;;;15.37;;
35540;SDS011;21650;48.840;9.162;2022-12-17T01:50:25;29.13;;;14.87;;
35540;SDS011;21650;48.840;9.162;2022-12-17T01:53:11;28.47;;;14.50;;
35540;SDS011;21650;48.840;9.162;2022-12-17T01:55:58;24.47;;;13.67;;
35540;SDS011;21650;48.840;9.162;2022-12-17T01:58:43;31.37;;;15.50;;
35540;SDS011;21650;48.840;9.162;2022-12-17T02:01:27;25.53;;;14.37;;
35540;SDS011;21650;48.840;9.162;2022-12-17T02:04:25;26.77;;;13.70;;
35540;SDS011;21650;48.840;9.162;2022-12-17T02:10:14;29.57;;;15.83;;
35540;SDS011;21650;48.840;9.162;2022-12-17T02:13:03;24.70;;;14.03;;
35540;SDS011;21650;48.840;9.162;2022-12-17T02:15:57;32.67;;;14.43;;
35540;SDS011;21650;48.840;9.162;2022-12-17T02:18:49;27.50;;;14.63;;
35540;SDS011;21650;48.840;9.162;2022-12-17T02:21:38;28.73;;;15.43;;
35540;SDS011;21650;48.840;9.162;2022-12-17T02:24:27;30.87;;;14.13;;
35540;SDS011;21650;48.840;9.162;2022-12-17T02:27:24;29.07;;;14.23;;
35540;SDS011;21650;48.840;9.162;2022-12-17T02:30:09;25.00;;;14.83;;
35540;SDS011;21650;48.840;9.162;2022-12-17T02:32:53;27.00;;;15.13;;
35540;SDS011;21650;48.840;9.162;2022-12-17T02:36:12;28.90;;;14.83;;
35540;SDS011;21650;48.840;9.162;2022-12-17T02:38:49;25.90;;;13.57;;
35540;SDS011;21650;48.840;9.162;2022-12-17T02:41:42;29.40;;;15.40;;
35540;SDS011;21650;48.840;9.162;2022-12-17T02:44:31;22.70;;;14.53;;
35540;SDS011;21650;48.840;9.162;2022-12-17T02:47:17;29.40;;;14.73;;
35540;SDS011;21650;48.840;9.162;2022-12-17T02:50:05;28.60;;;15.17;;
35540;SDS011;21650;48.840;9.162;2022-12-17T02:52:50;26.77;;;14.87;;
35540;SDS011;21650;48.840;9.162;2022-12-17T02:58:56;23.13;;;14.20;;
35540;SDS011;21650;48.840;9.162;2022-12-17T03:01:40;23.27;;;14.43;;
35540;SDS011;21650;48.840;9.162;2022-12-17T03:04:25;23.97;;;13.93;;
35540;SDS011;21650;48.840;9.162;2022-12-17T03:07:08;23.57;;;14.43;;
35540;SDS011;21650;48.840;9.162;2022-12-17T03:09:52;37.93;;;17.70;;
35540;SDS011;21650;48.840;9.162;2022-12-17T03:12:36;29.63;;;16.23;;
35540;SDS011;21650;48.840;9.162;2022-12-17T03:15:20;30.33;;;15.87;;
35540;SDS011;21650;48.840;9.162;2022-12-17T03:18:04;30.10;;;15.57;;
35540;SDS011;21650;48.840;9.162;2022-12-17T03:20:51;29.40;;;15.10;;
35540;SDS011;21650;48.840;9.162;2022-12-17T03:23:35;25.53;;;14.03;;
35540;SDS011;21650;48.840;9.162;2022-12-17T03:26:19;26.30;;;14.47;;
35540;SDS011;21650;48.840;9.162;2022-12-17T03:29:04;30.33;;;16.33;;
35540;SDS011;21650;48.840;9.162;2022-12-17T03:31:48;34.43;;;17.67;;
35540;SDS011;21650;48.840;9.162;2022-12-17T03:34:32;27.50;;;15.37;;
35540;SDS011;21650;48.840;9.162;2022-12-17T03:37:16;29.43;;;16.83;;
35540;SDS011;21650;48.840;9.162;2022-12-17T03:40:00;36.27;;;17.10;;
35540;SDS011;21650;48.840;9.162;2022-12-17T03:42:44;31.27;;;15.87;;
35540;SDS011;21650;48.840;9.162;2022-12-17T03:45:28;40.07;;;17.97;;
35540;SDS011;21650;48.840;9.162;2022-12-17T03:48:13;40.17;;;16.80;;
35540;SDS011;21650;48.840;9.162;2022-12-17T03:50:57;42.33;;;19.43;;
35540;SDS011;21650;48.840;9.162;2022-12-17T03:53:42;29.73;;;17.13;;
35540;SDS011;21650;48.840;9.162;2022-12-17T03:56:27;32.70;;;15.90;;
35540;SDS011;21650;48.840;9.162;2022-12-17T03:59:11;40.70;;;17.90;;
35540;SDS011;21650;48.840;9.162;2022-12-17T04:01:56;40.33;;;16.53;;
35540;SDS011;21650;48.840;9.162;2022-12-17T04:04:40;34.30;;;17.00;;
35540;SDS011;21650;48.840;9.162;2022-12-17T04:07:24;48.47;;;18.93;;
35540;SDS011;21650;48.840;9.162;2022-12-17T04:10:09;48.57;;;18.60;;
35540;SDS011;21650;48.840;9.162;2022-12-17T04:12:53;39.53;;;19.00;;
35540;SDS011;21650;48.840;9.162;2022-12-17T04:15:37;42.43;;;18.30;;
35540;SDS011;21650;48.840;9.162;2022-12-17T04:18:22;41.53;;;18.97;;
35540;SDS011;21650;48.840;9.162;2022-12-17T04:21:06;39.80;;;18.67;;
35540;SDS011;21650;48.840;9.162;2022-12-17T04:23:50;45.93;;;19.53;;
35540;SDS011;21650;48.840;9.162;2022-12-17T04:26:34;45.60;;;19.17;;
35540;SDS011;21650;48.840;9.162;2022-12-17T04:29:18;48.73;;;21.93;;
35540;SDS011;21650;48.840;9.162;2022-12-17T04:32:02;44.20;;;19.53;;
35540;SDS011;21650;48.840;9.162;2022-12-17T04:34:46;40.93;;;20.50;;
35540;SDS011;21650;48.840;9.162;2022-12-17T04:37:30;45.50;;;19.50;;
35540;SDS011;21650;48.840;9.162;2022-12-17T04:40:14;50.50;;;20.17;;
35540;SDS011;21650;48.840;9.162;2022-12-17T04:43:06;50.37;;;20.77;;
35540;SDS011;21650;48.840;9.162;2022-12-17T04:45:51;39.60;;;20.40;;
35540;SDS011;21650;48.840;9.162;2022-12-17T04:48:35;41.97;;;19.37;;
35540;SDS011;21650;48.840;9.162;2022-12-17T04:51:19;45.23;;;21.03;;
35540;SDS011;21650;48.840;9.162;2022-12-17T04:54:03;51.37;;;21.33;;
35540;SDS011;21650;48.840;9.162;2022-12-17T04:56:47;46.43;;;19.43;;
35540;SDS011;21650;48.840;9.162;2022-12-17T04:59:31;40.10;;;18.47;;
35540;SDS011;21650;48.840;9.162;2022-12-17T05:02:15;37.77;;;18.13;;
35540;SDS011;21650;48.840;9.162;2022-12-17T05:04:59;45.17;;;18.77;;
35540;SDS011;21650;48.840;9.162;2022-12-17T05:07:43;48.50;;;21.33;;
35540;SDS011;21650;48.840;9.162;2022-12-17T05:10:27;48.63;;;20.87;;
35540;SDS011;21650;48.840;9.162;2022-12-17T05:13:12;43.37;;;20.87;;
35540;SDS011;21650;48.840;9.162;2022-12-17T05:15:56;46.93;;;21.23;;
35540;SDS011;21650;48.840;9.162;2022-12-17T05:18:40;48.40;;;21.23;;
35540;SDS011;21650;48.840;9.162;2022-12-17T05:21:24;45.73;;;18.87;;
35540;SDS011;21650;48.840;9.162;2022-12-17T05:24:08;45.17;;;20.07;;
35540;SDS011;21650;48.840;9.162;2022-12-17T05:26:52;50.63;;;22.43;;
35540;SDS011;21650;48.840;9.162;2022-12-17T05:29:36;47.77;;;20.10;;
35540;SDS011;21650;48.840;9.162;2022-12-17T05:32:20;42.27;;;20.23;;
35540;SDS011;21650;48.840;9.162;2022-12-17T05:35:04;44.20;;;21.40;;
35540;SDS011;21650;48.840;9.162;2022-12-17T05:37:49;46.53;;;18.93;;
35540;SDS011;21650;48.840;9.162;2022-12-17T05:40:33;48.10;;;20.53;;
35540;SDS011;21650;48.840;9.162;2022-12-17T05:43:17;52.23;;;21.40;;
35540;SDS011;21650;48.840;9.162;2022-12-17T05:46:01;48.30;;;20.10;;
35540;SDS011;21650;48.840;9.162;2022-12-17T05:48:45;47.93;;;19.63;;
35540;SDS011;21650;48.840;9.162;2022-12-17T05:51:29;45.67;;;21.20;;
35540;SDS011;21650;48.840;9.162;2022-12-17T05:54:13;40.00;;;18.37;;
35540;SDS011;21650;48.840;9.162;2022-12-17T05:56:57;41.80;;;18.87;;
35540;SDS011;21650;48.840;9.162;2022-12-17T05:59:42;53.97;;;21.10;;
35540;SDS011;21650;48.840;9.162;2022-12-17T06:02:26;47.73;;;21.80;;
35540;SDS011;21650;48.840;9.162;2022-12-17T06:05:10;44.90;;;19.73;;
35540;SDS011;21650;48.840;9.162;2022-12-17T06:08:01;34.60;;;18.93;;
35540;SDS011;21650;48.840;9.162;2022-12-17T06:10:49;50.13;;;20.13;;
35540;SDS011;21650;48.840;9.162;2022-12-17T06:13:33;44.90;;;21.47;;
35540;SDS011;21650;48.840;9.162;2022-12-17T06:16:17;46.53;;;22.27;;
35540;SDS011;21650;48.840;9.162;2022-12-17T06:19:02;52.63;;;22.93;;
35540;SDS011;21650;48.840;9.162;2022-12-17T06:21:46;49.57;;;22.10;;
35540;SDS011;21650;48.840;9.162;2022-12-17T06:24:30;47.33;;;22.77;;
35540;SDS011;21650;48.840;9.162;2022-12-17T06:27:14;49.47;;;21.07;;
35540;SDS011;21650;48.840;9.162;2022-12-17T06:29:58;55.70;;;23.07;;
35540;SDS011;21650;48.840;9.162;2022-12-17T06:32:42;44.57;;;22.40;;
35540;SDS011;21650;48.840;9.162;2022-12-17T06:35:26;51.17;;;23.80;;
35540;SDS011;21650;48.840;9.162;2022-12-17T06:38:10;43.37;;;21.53;;
35540;SDS011;21650;48.840;9.162;2022-12-17T06:40:54;52.43;;;23.17;;
35540;SDS011;21650;48.840;9.162;2022-12-17T06:43:38;43.53;;;21.13;;
35540;SDS011;21650;48.840;9.162;2022-12-17T06:46:23;45.03;;;22.17;;
35540;SDS011;21650;48.840;9.162;2022-12-17T06:49:07;47.23;;;22.53;;
35540;SDS011;21650;48.840;9.162;2022-12-17T06:51:51;54.03;;;23.30;;
35540;SDS011;21650;48.840;9.162;2022-12-17T06:54:35;43.53;;;20.97;;
35540;SDS011;21650;48.840;9.162;2022-12-17T06:57:19;52.87;;;24.37;;
35540;SDS011;21650;48.840;9.162;2022-12-17T07:00:04;50.50;;;23.57;;
35540;SDS011;21650;48.840;9.162;2022-12-17T07:02:53;53.13;;;21.53;;
35540;SDS011;21650;48.840;9.162;2022-12-17T07:05:41;48.80;;;22.77;;
35540;SDS011;21650;48.840;9.162;2022-12-17T07:08:25;55.57;;;24.80;;
35540;SDS011;21650;48.840;9.162;2022-12-17T07:11:10;53.50;;;22.70;;
35540;SDS011;21650;48.840;9.162;2022-12-17T07:13:54;51.57;;;23.57;;
35540;SDS011;21650;48.840;9.162;2022-12-17T07:16:38;54.40;;;24.17;;
35540;SDS011;21650;48.840;9.162;2022-12-17T07:19:22;56.30;;;26.13;;
35540;SDS011;21650;48.840;9.162;2022-12-17T07:22:06;54.27;;;24.80;;
35540;SDS011;21650;48.840;9.162;2022-12-17T07:24:50;45.73;;;24.07;;
35540;SDS011;21650;48.840;9.162;2022-12-17T07:27:34;48.10;;;24.07;;
35540;SDS011;21650;48.840;9.162;2022-12-17T07:30:18;52.63;;;24.20;;
35540;SDS011;21650;48.840;9.162;2022-12-17T07:33:03;48.60;;;22.30;;
35540;SDS011;21650;48.840;9.162;2022-12-17T07:35:56;54.57;;;24.23;;
35540;SDS011;21650;48.840;9.162;2022-12-17T07:38:40;52.93;;;25.50;;
35540;SDS011;21650;48.840;9.162;2022-12-17T07:41:24;53.00;;;23.33;;
35540;SDS011;21650;48.840;9.162;2022-12-17T07:44:08;53.03;;;25.60;;
35540;SDS011;21650;48.840;9.162;2022-12-17T07:46:52;49.67;;;25.17;;
35540;SDS011;21650;48.840;9.162;2022-12-17T07:49:36;52.47;;;23.60;;
35540;SDS011;21650;48.840;9.162;2022-12-17T07:52:21;60.40;;;24.00;;
35540;SDS011;21650;48.840;9.162;2022-12-17T07:55:05;50.00;;;22.70;;
35540;SDS011;21650;48.840;9.162;2022-12-17T07:57:59;47.43;;;23.63;;
35540;SDS011;21650;48.840;9.162;2022-12-17T08:00:45;53.23;;;23.87;;
35540;SDS011;21650;48.840;9.162;2022-12-17T08:03:29;43.47;;;21.83;;
35540;SDS011;21650;48.840;9.162;2022-12-17T08:06:13;52.20;;;22.77;;
35540;SDS011;21650;48.840;9.162;2022-12-17T08:08:57;44.40;;;22.43;;
35540;SDS011;21650;48.840;9.162;2022-12-17T08:11:41;42.77;;;21.30;;
35540;SDS011;21650;48.840;9.162;2022-12-17T08:14:25;49.83;;;23.10;;
35540;SDS011;21650;48.840;9.162;2022-12-17T08:17:09;46.70;;;22.53;;
35540;SDS011;21650;48.840;9.162;2022-12-17T08:19:53;42.83;;;20.83;;
35540;SDS011;21650;48.840;9.162;2022-12-17T08:22:37;47.83;;;21.23;;
35540;SDS011;21650;48.840;9.162;2022-12-17T08:25:21;42.77;;;21.20;;
35540;SDS011;21650;48.840;9.162;2022-12-17T08:28:06;44.17;;;19.77;;
35540;SDS011;21650;48.840;9.162;2022-12-17T08:30:51;42.73;;;20.17;;
35540;SDS011;21650;48.840;9.162;2022-12-17T08:33:35;43.57;;;19.03;;
35540;SDS011;21650;48.840;9.162;2022-12-17T08:36:19;43.40;;;19.60;;
35540;SDS011;21650;48.840;9.162;2022-12-17T08:39:03;40.67;;;18.77;;
35540;SDS011;21650;48.840;9.162;2022-12-17T08:41:47;38.80;;;18.63;;
35540;SDS011;21650;48.840;9.162;2022-12-17T08:44:31;37.47;;;19.03;;
35540;SDS011;21650;48.840;9.162;2022-12-17T08:47:15;37.97;;;18.60;;
35540;SDS011;21650;48.840;9.162;2022-12-17T08:49:59;39.37;;;19.43;;
35540;SDS011;21650;48.840;9.162;2022-12-17T08:52:43;46.33;;;20.60;;
35540;SDS011;21650;48.840;9.162;2022-12-17T08:55:27;44.40;;;20.10;;
35540;SDS011;21650;48.840;9.162;2022-12-17T08:58:11;43.33;;;20.53;;
35540;SDS011;21650;48.840;9.162;2022-12-17T09:00:58;44.03;;;20.67;;
35540;SDS011;21650;48.840;9.162;2022-12-17T09:03:44;49.97;;;20.77;;
35540;SDS011;21650;48.840;9.162;2022-12-17T09:06:29;44.20;;;21.17;;
35540;SDS011;21650;48.840;9.162;2022-12-17T09:09:14;48.10;;;21.60;;
35540;SDS011;21650;48.840;9.162;2022-12-17T09:11:58;41.90;;;19.63;;
35540;SDS011;21650;48.840;9.162;2022-12-17T09:14:43;43.13;;;19.93;;
35540;SDS011;21650;48.840;9.162;2022-12-17T09:17:27;42.30;;;20.10;;
35540;SDS011;21650;48.840;9.162;2022-12-17T09:20:11;41.43;;;21.43;;
35540;SDS011;21650;48.840;9.162;2022-12-17T09:22:55;42.03;;;20.40;;
35540;SDS011;21650;48.840;9.162;2022-12-17T09:25:39;42.50;;;20.17;;
35540;SDS011;21650;48.840;9.162;2022-12-17T09:28:23;49.53;;;21.47;;
35540;SDS011;21650;48.840;9.162;2022-12-17T09:31:07;42.57;;;21.07;;
35540;SDS011;21650;48.840;9.162;2022-12-17T09:33:52;42.53;;;20.17;;
35540;SDS011;21650;48.840;9.162;2022-12-17T09:36:36;45.90;;;21.50;;
35540;SDS011;21650;48.840;9.162;2022-12-17T09:39:20;47.47;;;20.63;;
35540;SDS011;21650;48.840;9.162;2022-12-17T09:42:12;48.27;;;21.27;;
35540;SDS011;21650;48.840;9.162;2022-12-17T09:50:54;46.83;;;21.10;;
35540;SDS011;21650;48.840;9.162;2022-12-17T09:53:41;47.97;;;20.73;;
35540;SDS011;21650;48.840;9.162;2022-12-17T09:56:32;38.27;;;18.70;;
35540;SDS011;21650;48.840;9.162;2022-12-17T10:02:19;41.50;;;18.50;;
35540;SDS011;21650;48.840;9.162;2022-12-17T10:05:08;44.73;;;20.83;;
35540;SDS011;21650;48.840;9.162;2022-12-17T10:08:13;47.73;;;21.93;;
35540;SDS011;21650;48.840;9.162;2022-12-17T10:11:10;55.33;;;22.20;;
35540;SDS011;21650;48.840;9.162;2022-12-17T10:13:58;41.13;;;21.83;;
35540;SDS011;21650;48.840;9.162;2022-12-17T10:16:43;51.17;;;21.80;;
35540;SDS011;21650;48.840;9.162;2022-12-17T10:19:30;40.80;;;19.53;;
35540;SDS011;21650;48.840;9.162;2022-12-17T10:22:18;49.43;;;22.27;;
35540;SDS011;21650;48.840;9.162;2022-12-17T10:25:16;42.57;;;19.93;;
35540;SDS011;21650;48.840;9.162;2022-12-17T10:28:09;55.70;;;23.03;;
35540;SDS011;21650;48.840;9.162;2022-12-17T10:30:56;45.23;;;20.37;;
35540;SDS011;21650;48.840;9.162;2022-12-17T10:33:41;50.43;;;22.07;;
35540;SDS011;21650;48.840;9.162;2022-12-17T10:36:26;42.50;;;20.33;;
35540;SDS011;21650;48.840;9.162;2022-12-17T10:39:16;60.00;;;24.90;;
35540;SDS011;21650;48.840;9.162;2022-12-17T10:42:17;47.10;;;23.40;;
35540;SDS011;21650;48.840;9.162;2022-12-17T10:45:16;52.63;;;21.97;;
35540;SDS011;21650;48.840;9.162;2022-12-17T10:48:21;51.23;;;23.23;;
35540;SDS011;21650;48.840;9.162;2022-12-17T10:51:28;44.67;;;22.23;;
35540;SDS011;21650;48.840;9.162;2022-12-17T10:54:31;45.70;;;22.33;;
35540;SDS011;21650;48.840;9.162;2022-12-17T10:57:23;49.93;;;21.23;;
35540;SDS011;21650;48.840;9.162;2022-12-17T11:06:35;49.43;;;22.03;;
35540;SDS011;21650;48.840;9.162;2022-12-17T11:09:32;39.73;;;20.53;;
35540;SDS011;21650;48.840;9.162;2022-12-17T11:12:36;38.57;;;20.63;;
35540;SDS011;21650;48.840;9.162;2022-12-17T11:15:32;41.57;;;21.77;;
35540;SDS011;21650;48.840;9.162;2022-12-17T11:21:55;40.83;;;20.73;;
35540;SDS011;21650;48.840;9.162;2022-12-17T11:24:46;47.67;;;20.80;;
35540;SDS011;21650;48.840;9.162;2022-12-17T11:27:47;45.63;;;21.80;;
35540;SDS011;21650;48.840;9.162;2022-12-17T11:30:46;45.73;;;22.23;;
35540;SDS011;21650;48.840;9.162;2022-12-17T11:33:44;49.30;;;22.57;;
35540;SDS011;21650;48.840;9.162;2022-12-17T11:36:41;41.97;;;21.73;;
35540;SDS011;21650;48.840;9.162;2022-12-17T11:39:37;50.03;;;23.27;;
35540;SDS011;21650;48.840;9.162;2022-12-17T11:42:38;40.27;;;20.13;;
35540;SDS011;21650;48.840;9.162;2022-12-17T11:51:39;52.37;;;22.90;;
35540;SDS011;21650;48.840;9.162;2022-12-17T11:54:36;44.87;;;21.20;;
35540;SDS011;21650;48.840;9.162;2022-12-17T12:00:46;47.87;;;22.93;;
35540;SDS011;21650;48.840;9.162;2022-12-17T12:07:09;44.93;;;22.30;;
35540;SDS011;21650;48.840;9.162;2022-12-17T12:10:24;46.33;;;22.83;;
35540;SDS011;21650;48.840;9.162;2022-12-17T12:16:08;45.40;;;22.63;;
35540;SDS011;21650;48.840;9.162;2022-12-17T12:19:33;50.80;;;24.90;;
35540;SDS011;21650;48.840;9.162;2022-12-17T12:22:31;49.63;;;24.33;;
35540;SDS011;21650;48.840;9.162;2022-12-17T12:25:43;45.57;;;24.40;;
35540;SDS011;21650;48.840;9.162;2022-12-17T12:28:50;57.97;;;26.60;;
35540;SDS011;21650;48.840;9.162;2022-12-17T12:32:02;60.30;;;24.83;;
35540;SDS011;21650;48.840;9.162;2022-12-17T12:34:52;53.37;;;25.30;;
35540;SDS011;21650;48.840;9.162;2022-12-17T12:37:38;51.67;;;24.93;;
35540;SDS011;21650;48.840;9.162;2022-12-17T12:43:31;50.13;;;24.27;;
35540;SDS011;21650;48.840;9.162;2022-12-17T12:49:25;52.30;;;24.03;;
35540;SDS011;21650;48.840;9.162;2022-12-17T12:52:20;44.77;;;23.10;;
35540;SDS011;21650;48.840;9.162;2022-12-17T12:55:07;45.27;;;22.77;;
35540;SDS011;21650;48.840;9.162;2022-12-17T13:06:36;52.10;;;25.90;;
35540;SDS011;21650;48.840;9.162;2022-12-17T13:11:42;49.67;;;24.00;;
35540;SDS011;21650;48.840;9.162;2022-12-17T13:14:30;44.80;;;23.37;;
35540;SDS011;21650;48.840;9.162;2022-12-17T13:17:01;50.70;;;24.30;;
35540;SDS011;21650;48.840;9.162;2022-12-17T13:19:37;52.20;;;25.37;;
35540;SDS011;21650;48.840;9.162;2022-12-17T13:24:40;50.03;;;23.67;;
35540;SDS011;21650;48.840;9.162;2022-12-17T13:29:57;47.40;;;24.07;;
35540;SDS011;21650;48.840;9.162;2022-12-17T13:32:40;56.37;;;24.07;;
35540;SDS011;21650;48.840;9.162;2022-12-17T13:37:59;55.13;;;24.87;;
35540;SDS011;21650;48.840;9.162;2022-12-17T13:43:20;55.63;;;27.87;;
35540;SDS011;21650;48.840;9.162;2022-12-17T13:45:49;52.73;;;25.80;;
35540;SDS011;21650;48.840;9.162;2022-12-17T13:48:18;53.67;;;24.13;;
35540;SDS011;21650;48.840;9.162;2022-12-17T13:53:25;55.33;;;25.07;;
35540;SDS011;21650;48.840;9.162;2022-12-17T13:55:52;45.03;;;22.13;;
35540;SDS011;21650;48.840;9.162;2022-12-17T14:00:49;55.40;;;25.67;;
35540;SDS011;21650;48.840;9.162;2022-12-17T14:03:18;52.23;;;25.70;;
35540;SDS011;21650;48.840;9.162;2022-12-17T14:05:46;56.57;;;27.47;;
35540;SDS011;21650;48.840;9.162;2022-12-17T14:08:16;62.17;;;26.60;;
35540;SDS011;21650;48.840;9.162;2022-12-17T14:10:44;57.60;;;25.33;;
35540;SDS011;21650;48.840;9.162;2022-12-17T14:13:14;50.70;;;26.40;;
35540;SDS011;21650;48.840;9.162;2022-12-17T14:15:44;54.63;;;26.97;;
35540;SDS011;21650;48.840;9.162;2022-12-17T14:18:14;51.97;;;25.47;;
35540;SDS011;21650;48.840;9.162;2022-12-17T14:20:42;50.47;;;25.77;;
35540;SDS011;21650;48.840;9.162;2022-12-17T14:23:18;61.37;;;27.87;;
35540;SDS011;21650;48.840;9.162;2022-12-17T14:25:50;51.33;;;25.77;;
35540;SDS011;21650;48.840;9.162;2022-12-17T14:28:20;54.03;;;28.10;;
35540;SDS011;21650;48.840;9.162;2022-12-17T14:34:08;55.77;;;27.87;;
35540;SDS011;21650;48.840;9.162;2022-12-17T14:36:38;58.30;;;27.60;;
35540;SDS011;21650;48.840;9.162;2022-12-17T14:39:15;53.80;;;27.00;;
35540;SDS011;21650;48.840;9.162;2022-12-17T14:41:41;53.40;;;27.73;;
35540;SDS011;21650;48.840;9.162;2022-12-17T14:44:26;56.27;;;27.43;;
35540;SDS011;21650;48.840;9.162;2022-12-17T14:49:36;51.43;;;27.27;;
35540;SDS011;21650;48.840;9.162;2022-12-17T14:52:11;55.63;;;26.20;;
35540;SDS011;21650;48.840;9.162;2022-12-17T14:54:42;59.50;;;27.80;;
35540;SDS011;21650;48.840;9.162;2022-12-17T14:57:16;55.87;;;28.33;;
35540;SDS011;21650;48.840;9.162;2022-12-17T14:59:44;58.30;;;28.17;;
35540;SDS011;21650;48.840;9.162;2022-12-17T15:04:43;55.90;;;27.10;;
35540;SDS011;21650;48.840;9.162;2022-12-17T15:07:09;56.23;;;28.23;;
35540;SDS011;21650;48.840;9.162;2022-12-17T15:09:38;53.40;;;26.27;;
35540;SDS011;21650;48.840;9.162;2022-12-17T15:12:05;53.53;;;26.00;;
35540;SDS011;21650;48.840;9.162;2022-12-17T15:14:31;55.63;;;26.73;;
35540;SDS011;21650;48.840;9.162;2022-12-17T15:16:57;66.97;;;30.00;;
35540;SDS011;21650;48.840;9.162;2022-12-17T15:19:25;61.70;;;28.40;;
35540;SDS011;21650;48.840;9.162;2022-12-17T15:21:50;60.43;;;28.30;;
35540;SDS011;21650;48.840;9.162;2022-12-17T15:24:17;63.73;;;28.13;;
35540;SDS011;21650;48.840;9.162;2022-12-17T15:26:45;53.50;;;27.23;;
35540;SDS011;21650;48.840;9.162;2022-12-17T15:29:11;55.47;;;28.37;;
35540;SDS011;21650;48.840;9.162;2022-12-17T15:31:37;57.60;;;28.90;;
35540;SDS011;21650;48.840;9.162;2022-12-17T15:34:03;56.27;;;28.83;;
35540;SDS011;21650;48.840;9.162;2022-12-17T15:36:30;61.20;;;29.43;;
35540;SDS011;21650;48.840;9.162;2022-12-17T15:38:56;64.63;;;29.70;;
35540;SDS011;21650;48.840;9.162;2022-12-17T15:41:22;61.27;;;29.53;;
35540;SDS011;21650;48.840;9.162;2022-12-17T15:44:06;53.57;;;27.53;;
35540;SDS011;21650;48.840;9.162;2022-12-17T15:46:32;52.37;;;27.47;;
35540;SDS011;21650;48.840;9.162;2022-12-17T15:48:58;61.73;;;27.20;;
35540;SDS011;21650;48.840;9.162;2022-12-17T15:51:24;53.03;;;26.80;;
35540;SDS011;21650;48.840;9.162;2022-12-17T15:53:49;59.37;;;28.30;;
35540;SDS011;21650;48.840;9.162;2022-12-17T15:56:17;60.13;;;29.83;;
35540;SDS011;21650;48.840;9.162;2022-12-17T15:58:50;58.40;;;29.37;;
35540;SDS011;21650;48.840;9.162;2022-12-17T16:01:16;56.17;;;28.67;;
35540;SDS011;21650;48.840;9.162;2022-12-17T16:03:43;60.20;;;29.47;;
35540;SDS011;21650;48.840;9.162;2022-12-17T16:06:09;63.67;;;27.47;;
35540;SDS011;21650;48.840;9.162;2022-12-17T16:08:36;59.13;;;28.97;;
35540;SDS011;21650;48.840;9.162;2022-12-17T16:11:09;60.17;;;29.30;;
35540;SDS011;21650;48.840;9.162;2022-12-17T16:13:36;65.30;;;30.23;;
35540;SDS011;21650;48.840;9.162;2022-12-17T16:16:03;58.13;;;28.63;;
35540;SDS011;21650;48.840;9.162;2022-12-17T16:18:29;60.03;;;31.00;;
35540;SDS011;21650;48.840;9.162;2022-12-17T16:21:00;60.90;;;29.40;;
35540;SDS011;21650;48.840;9.162;2022-12-17T16:23:27;56.77;;;28.13;;
35540;SDS011;21650;48.840;9.162;2022-12-17T16:25:56;59.27;;;27.93;;
35540;SDS011;21650;48.840;9.162;2022-12-17T16:28:24;62.43;;;28.00;;
35540;SDS011;21650;48.840;9.162;2022-12-17T16:31:04;54.07;;;28.43;;
35540;SDS011;21650;48.840;9.162;2022-12-17T16:33:33;56.80;;;28.07;;
35540;SDS011;21650;48.840;9.162;2022-12-17T16:36:00;67.23;;;32.03;;
35540;SDS011;21650;48.840;9.162;2022-12-17T16:38:27;57.13;;;30.20;;
35540;SDS011;21650;48.840;9.162;2022-12-17T16:40:53;64.90;;;31.83;;
35540;SDS011;21650;48.840;9.162;2022-12-17T16:43:20;63.60;;;31.93;;
35540;SDS011;21650;48.840;9.162;2022-12-17T16:45:47;66.40;;;33.57;;
35540;SDS011;21650;48.840;9.162;2022-12-17T16:48:14;74.00;;;36.73;;
35540;SDS011;21650;48.840;9.162;2022-12-17T16:50:41;67.03;;;33.57;;
35540;SDS011;21650;48.840;9.162;2022-12-17T16:53:08;83.10;;;36.37;;
35540;SDS011;21650;48.840;9.162;2022-12-17T16:55:38;71.13;;;34.10;;
35540;SDS011;21650;48.840;9.162;2022-12-17T16:58:05;71.07;;;34.47;;
35540;SDS011;21650;48.840;9.162;2022-12-17T17:00:32;68.33;;;34.03;;
35540;SDS011;21650;48.840;9.162;2022-12-17T17:02:58;72.67;;;35.13;;
35540;SDS011;21650;48.840;9.162;2022-12-17T17:05:24;78.20;;;35.47;;
35540;SDS011;21650;48.840;9.162;2022-12-17T17:07:50;68.30;;;36.03;;
35540;SDS011;21650;48.840;9.162;2022-12-17T17:10:16;69.30;;;33.17;;
35540;SDS011;21650;48.840;9.162;2022-12-17T17:12:41;72.77;;;32.23;;
35540;SDS011;21650;48.840;9.162;2022-12-17T17:15:07;63.23;;;29.87;;